Terminal Aerodrome Forecast
Issued by NWS Detroit/Pontiac, MI

Home | Current Version | Previous Version | Text Only | Print | Product List | Glossary On
Versions: 1 2 3 4 5 6 7 8 9 10 11 12 13 14
000
FTUS43 KDTX 191125
TAFFNT
TAF
KFNT 191125Z 1912/2012 07010KT P6SM BKN250
     FM191400 09014G22KT P6SM SCT070 OVC150
     FM192300 12012KT 6SM -RA BKN040 OVC060
     FM200200 11014KT 2SM RA BKN008 OVC018
     FM200700 15012G20KT P6SM BKN008 OVC018
      TEMPO 2007/2010 5SM -SHRA=

USA.gov is the U.S. government's official web portal to all federal, state and local government web resources and services.